createdAt,value
2023-11-23T00:01:06.632Z,97409.25
2023-11-23T00:04:03.710Z,97416.97
2023-11-23T00:07:00.690Z,97415.81
2023-11-23T00:09:57.598Z,97406.44
2023-11-23T00:12:54.472Z,97392.00
2023-11-23T00:15:51.363Z,97388.28
2023-11-23T00:18:48.296Z,97385.63
2023-11-23T00:21:45.299Z,97379.75
2023-11-23T00:24:42.457Z,97360.53
2023-11-23T00:27:39.735Z,97370.56
2023-11-23T00:30:36.781Z,97356.75
2023-11-23T00:33:33.752Z,97359.56
2023-11-23T00:36:31.983Z,97358.94
2023-11-23T00:39:28.855Z,97363.47
2023-11-23T00:42:25.941Z,97360.38
2023-11-23T00:45:22.843Z,97359.72
2023-11-23T00:48:19.816Z,97355.06
2023-11-23T00:51:17.342Z,97361.34
2023-11-23T00:54:14.317Z,97365.34
2023-11-23T00:57:12.416Z,97363.47
2023-11-23T01:00:10.464Z,97374.22
2023-11-23T01:03:07.824Z,97362.84
2023-11-23T01:06:05.389Z,97359.19
2023-11-23T01:09:02.373Z,97356.06
2023-11-23T01:11:59.576Z,97355.19
2023-11-23T01:14:56.524Z,97332.94
2023-11-23T01:17:53.580Z,97340.75
2023-11-23T01:20:51.608Z,97344.19
2023-11-23T01:23:48.578Z,97356.38
2023-11-23T01:26:45.837Z,97352.13
2023-11-23T01:29:42.763Z,97353.03
2023-11-23T01:32:39.851Z,97355.06
2023-11-23T01:35:36.844Z,97348.94
2023-11-23T01:38:33.763Z,97342.84
2023-11-23T01:41:30.608Z,97341.91
2023-11-23T01:44:28.171Z,97339.78
2023-11-23T01:47:27.541Z,97347.09
2023-11-23T01:50:25.920Z,97359.81
2023-11-23T01:53:23.228Z,97354.81
2023-11-23T01:56:22.471Z,97359.25
2023-11-23T01:59:19.728Z,97347.47
2023-11-23T02:02:17.701Z,97337.50
2023-11-23T02:05:14.588Z,97330.41
2023-11-23T02:08:11.599Z,97336.88
2023-11-23T02:11:08.628Z,97329.59
2023-11-23T02:14:07.790Z,97327.94
2023-11-23T02:17:21.607Z,97324.78
2023-11-23T02:20:18.549Z,97313.09
2023-11-23T02:23:15.438Z,97323.16
2023-11-23T02:26:12.462Z,97326.19
2023-11-23T02:29:09.354Z,97325.19
2023-11-23T02:32:29.071Z,97325.84
2023-11-23T02:35:25.993Z,97326.81
2023-11-23T02:38:22.957Z,97322.91
2023-11-23T02:41:20.217Z,97326.84
2023-11-23T02:44:17.115Z,97325.34
2023-11-23T02:47:14.025Z,97318.09
2023-11-23T02:50:12.479Z,97302.81
2023-11-23T02:53:18.254Z,97294.84
2023-11-23T02:56:18.333Z,97298.84
2023-11-23T02:59:15.217Z,97289.09
2023-11-23T03:02:12.170Z,97280.66
2023-11-23T03:05:11.638Z,97287.38
2023-11-23T03:08:08.586Z,97292.88
2023-11-23T03:11:05.861Z,97290.69
2023-11-23T03:14:02.766Z,97277.09
2023-11-23T03:16:59.660Z,97281.47
2023-11-23T03:19:56.549Z,97293.63
2023-11-23T03:22:54.329Z,97286.00
2023-11-23T03:25:51.274Z,97268.28
2023-11-23T03:28:48.138Z,97262.75
2023-11-23T03:31:45.043Z,97263.50
2023-11-23T03:34:42.010Z,97259.75
2023-11-23T03:37:39.010Z,97258.59
2023-11-23T03:40:38.302Z,97257.22
2023-11-23T03:43:35.211Z,97258.97
2023-11-23T03:46:32.130Z,97253.19
2023-11-23T03:49:29.015Z,97247.09
2023-11-23T03:52:26.001Z,97254.13
2023-11-23T03:55:23.594Z,97257.50
2023-11-23T03:58:20.466Z,97248.38
2023-11-23T04:01:18.301Z,97246.81
2023-11-23T04:04:15.345Z,97246.75
2023-11-23T04:07:12.304Z,97248.59
2023-11-23T04:10:10.293Z,97247.28
2023-11-23T04:13:07.274Z,97250.78
2023-11-23T04:16:04.733Z,97262.56
2023-11-23T04:19:01.615Z,97255.53
2023-11-23T04:22:00.547Z,97256.03
2023-11-23T04:24:57.500Z,97251.44
2023-11-23T04:27:55.391Z,97244.91
2023-11-23T04:30:52.338Z,97237.53
2023-11-23T04:33:49.311Z,97244.41
2023-11-23T04:36:46.326Z,97257.09
2023-11-23T04:39:43.205Z,97256.53
2023-11-23T04:42:41.696Z,97250.84
2023-11-23T04:45:39.217Z,97242.34
2023-11-23T04:48:36.153Z,97247.09
2023-11-23T04:51:33.201Z,97254.59
2023-11-23T04:54:30.107Z,97242.88
2023-11-23T04:57:27.198Z,97241.09
2023-11-23T05:00:26.475Z,97243.53
2023-11-23T05:03:23.734Z,97234.41
2023-11-23T05:06:20.930Z,97223.41
2023-11-23T05:09:18.178Z,97224.38
2023-11-23T05:12:15.163Z,97222.38
2023-11-23T05:15:12.318Z,97207.78
2023-11-23T05:18:09.508Z,97208.50
2023-11-23T05:21:06.705Z,97198.75
2023-11-23T05:24:05.704Z,97192.84
2023-11-23T05:27:02.698Z,97194.88
2023-11-23T05:30:00.978Z,97201.03
2023-11-23T05:32:58.025Z,97197.75
2023-11-23T05:35:55.018Z,97197.22
2023-11-23T05:38:52.002Z,97198.97
2023-11-23T05:41:49.005Z,97202.88
2023-11-23T05:44:46.190Z,97202.63
2023-11-23T05:47:43.373Z,97205.88
2023-11-23T05:50:40.713Z,97197.00
2023-11-23T05:53:37.587Z,97196.34
2023-11-23T05:56:35.037Z,97184.13
2023-11-23T05:59:31.950Z,97198.47
2023-11-23T06:02:28.912Z,97190.94
2023-11-23T06:05:25.929Z,97188.84
2023-11-23T06:08:22.917Z,97187.50
2023-11-23T06:11:20.097Z,97190.47
2023-11-23T06:14:17.163Z,97189.63
2023-11-23T06:17:15.758Z,97188.84
2023-11-23T06:20:13.841Z,97189.47
2023-11-23T06:23:11.503Z,97185.94
2023-11-23T06:26:08.936Z,97179.66
2023-11-23T06:29:05.992Z,97173.66
2023-11-23T06:32:05.803Z,97176.97
2023-11-23T06:35:04.313Z,97181.69
2023-11-23T06:38:01.301Z,97183.03
2023-11-23T06:41:00.050Z,97175.66
2023-11-23T06:43:56.955Z,97189.16
2023-11-23T06:46:53.844Z,97182.75
2023-11-23T06:49:51.121Z,97188.09
2023-11-23T06:52:48.464Z,97189.09
2023-11-23T06:55:46.106Z,97184.97
2023-11-23T06:58:47.711Z,97186.50
2023-11-23T07:01:44.786Z,97193.38
2023-11-23T07:04:42.413Z,97200.66
2023-11-23T07:07:39.374Z,97201.88
2023-11-23T07:10:37.317Z,97206.72
2023-11-23T07:13:35.464Z,97198.25
2023-11-23T07:16:32.568Z,97202.97
2023-11-23T07:19:29.501Z,97208.47
2023-11-23T07:22:26.399Z,97195.16
2023-11-23T07:25:24.387Z,97186.91
2023-11-23T07:28:23.251Z,97186.88
2023-11-23T07:31:20.326Z,97182.53
2023-11-23T07:34:17.190Z,97181.84
2023-11-23T07:37:14.117Z,97172.53
2023-11-23T07:40:15.661Z,97173.19
2023-11-23T07:43:12.817Z,97162.19
2023-11-23T07:46:10.728Z,97163.66
2023-11-23T07:49:07.639Z,97147.63
2023-11-23T07:52:04.943Z,97136.50
2023-11-23T07:55:01.965Z,97140.91
2023-11-23T07:57:58.939Z,97132.66
2023-11-23T08:00:56.056Z,97137.97
2023-11-23T08:03:53.305Z,97122.47
2023-11-23T08:06:50.384Z,97126.03
2023-11-23T08:09:47.937Z,97128.25
2023-11-23T08:12:45.631Z,97124.25
2023-11-23T08:15:42.630Z,97122.97
2023-11-23T08:18:46.834Z,97118.31
2023-11-23T08:21:49.943Z,97120.84
2023-11-23T08:24:47.692Z,97124.81
2023-11-23T08:27:44.673Z,97116.13
2023-11-23T08:30:41.768Z,97112.66
2023-11-23T08:33:39.008Z,97119.81
2023-11-23T08:36:37.190Z,97095.94
2023-11-23T08:39:35.728Z,97103.28
2023-11-23T08:42:34.632Z,97095.16
2023-11-23T08:45:31.811Z,97101.38
2023-11-23T08:48:28.835Z,97120.28
2023-11-23T08:51:25.846Z,97116.81
2023-11-23T08:54:24.061Z,97116.47
2023-11-23T08:57:21.034Z,97113.38
2023-11-23T09:00:24.952Z,97104.00
2023-11-23T09:03:22.035Z,97102.25
2023-11-23T09:06:20.092Z,97107.19
2023-11-23T09:09:18.232Z,97102.41
2023-11-23T09:12:18.550Z,97100.69
2023-11-23T09:15:16.962Z,97094.25
2023-11-23T09:18:14.735Z,97100.00
2023-11-23T09:21:12.110Z,97093.56
2023-11-23T09:24:11.220Z,97095.06
2023-11-23T09:27:08.395Z,97084.16
2023-11-23T09:30:07.851Z,97084.19
2023-11-23T09:33:05.982Z,97076.16
2023-11-23T09:36:03.705Z,97069.59
2023-11-23T09:39:01.767Z,97065.94
2023-11-23T09:42:00.377Z,97059.50
2023-11-23T09:44:58.541Z,97061.69
2023-11-23T09:47:58.205Z,97056.75
2023-11-23T09:50:55.712Z,97050.34
2023-11-23T09:53:57.444Z,97043.19
2023-11-23T09:56:54.624Z,97031.63
2023-11-23T09:59:51.572Z,97021.78
2023-11-23T10:02:50.999Z,97013.59
2023-11-23T10:05:48.102Z,97011.75
2023-11-23T10:08:45.129Z,97002.50
2023-11-23T10:11:42.219Z,96994.22
2023-11-23T10:14:41.305Z,96991.50
2023-11-23T10:17:39.488Z,96995.44
2023-11-23T10:20:39.939Z,96996.16
2023-11-23T10:23:37.273Z,97005.06
2023-11-23T10:26:35.435Z,96986.81
2023-11-23T10:29:33.569Z,96971.59
2023-11-23T10:32:32.213Z,96972.22
2023-11-23T10:36:02.259Z,96969.94
2023-11-23T10:39:03.512Z,96965.03
2023-11-23T10:42:01.279Z,96957.97
2023-11-23T10:44:58.313Z,96949.81
2023-11-23T10:47:59.460Z,96950.28
2023-11-23T10:51:00.210Z,96947.28
2023-11-23T10:53:57.564Z,96932.66
2023-11-23T10:56:57.106Z,96917.53
2023-11-23T10:59:56.261Z,96914.72
2023-11-23T11:02:59.414Z,96906.19
2023-11-23T11:05:57.419Z,96908.09
2023-11-23T11:08:54.492Z,96901.19
2023-11-23T11:11:56.874Z,96879.56
2023-11-23T11:14:55.225Z,96872.00
2023-11-23T11:18:08.566Z,96879.56
2023-11-23T11:21:14.203Z,96868.56
2023-11-23T11:24:21.923Z,96860.03
2023-11-23T11:27:20.477Z,96860.94
2023-11-23T11:30:25.155Z,96855.50
2023-11-23T11:33:25.481Z,96852.59
2023-11-23T11:36:25.348Z,96848.63
2023-11-23T11:39:23.480Z,96842.53
2023-11-23T11:42:20.464Z,96838.25
2023-11-23T11:45:18.850Z,96828.94
2023-11-23T11:48:16.020Z,96811.03
2023-11-23T11:51:13.386Z,96823.66
2023-11-23T11:54:10.543Z,96840.72
2023-11-23T11:57:07.625Z,96821.38
2023-11-23T12:00:08.649Z,96800.00
2023-11-23T12:03:05.979Z,96807.25
2023-11-23T12:06:05.064Z,96805.94
2023-11-23T12:09:02.266Z,96810.22
2023-11-23T12:12:06.867Z,96819.84
2023-11-23T12:15:04.655Z,96814.47
2023-11-23T12:18:03.741Z,96818.84
2023-11-23T12:21:01.892Z,96803.06
2023-11-23T12:24:00.649Z,96815.25
2023-11-23T12:26:58.524Z,96811.75
2023-11-23T12:29:55.628Z,96802.19
2023-11-23T12:32:52.707Z,96789.34
2023-11-23T12:35:49.736Z,96786.91
2023-11-23T12:38:47.551Z,96791.34
2023-11-23T12:41:53.079Z,96780.66
2023-11-23T12:44:52.164Z,96779.00
2023-11-23T12:47:49.865Z,96777.47
2023-11-23T12:50:46.796Z,96760.25
2023-11-23T12:53:43.843Z,96772.41
2023-11-23T12:56:40.730Z,96748.06
2023-11-23T12:59:37.644Z,96745.75
2023-11-23T13:02:35.398Z,96747.78
2023-11-23T13:05:34.412Z,96752.34
2023-11-23T13:08:32.016Z,96734.97
2023-11-23T13:11:28.885Z,96722.69
2023-11-23T13:14:25.982Z,96720.81
2023-11-23T13:17:24.635Z,96725.19
2023-11-23T13:20:24.034Z,96736.69
2023-11-23T13:23:20.989Z,96715.72
2023-11-23T13:26:18.890Z,96716.56
2023-11-23T13:29:16.202Z,96699.94
2023-11-23T13:32:13.070Z,96695.53
2023-11-23T13:35:09.951Z,96684.53
2023-11-23T13:38:06.838Z,96692.81
2023-11-23T13:41:04.278Z,96683.81
2023-11-23T13:44:02.363Z,96660.63
2023-11-23T13:47:00.004Z,96669.81
2023-11-23T13:49:56.978Z,96665.53
2023-11-23T13:52:53.835Z,96642.53
2023-11-23T13:55:53.936Z,96643.06
2023-11-23T13:58:51.232Z,96651.19
2023-11-23T14:01:49.665Z,96644.75
2023-11-23T14:04:46.957Z,96665.31
2023-11-23T14:07:43.897Z,96644.75
2023-11-23T14:10:40.798Z,96647.09
2023-11-23T14:13:38.773Z,96639.56
2023-11-23T14:16:36.361Z,96641.00
2023-11-23T14:19:33.462Z,96629.91
2023-11-23T14:22:35.092Z,96629.69
2023-11-23T14:25:32.199Z,96635.75
2023-11-23T14:28:29.494Z,96622.28
2023-11-23T14:31:28.420Z,96623.88
2023-11-23T14:34:25.478Z,96605.66
2023-11-23T14:37:24.230Z,96618.38
2023-11-23T14:40:22.596Z,96605.59
2023-11-23T14:43:20.773Z,96607.25
2023-11-23T14:46:18.578Z,96608.03
2023-11-23T14:49:16.828Z,96595.06
2023-11-23T14:52:15.858Z,96587.88
2023-11-23T14:55:15.648Z,96588.47
2023-11-23T14:58:15.092Z,96588.44
2023-11-23T15:01:12.112Z,96595.03
2023-11-23T15:04:09.815Z,96594.84
2023-11-23T15:07:07.308Z,96599.31
2023-11-23T15:10:12.555Z,96581.81
2023-11-23T15:13:09.800Z,96581.59
2023-11-23T15:16:07.254Z,96566.19
2023-11-23T15:19:05.988Z,96575.50
2023-11-23T15:22:09.222Z,96567.25
2023-11-23T15:25:10.597Z,96567.56
2023-11-23T15:28:11.707Z,96554.53
2023-11-23T15:31:08.836Z,96560.41
2023-11-23T15:34:07.073Z,96572.06
2023-11-23T15:37:04.662Z,96568.63
2023-11-23T15:40:01.603Z,96556.41
2023-11-23T15:42:58.595Z,96543.41
2023-11-23T15:45:55.491Z,96535.19
2023-11-23T15:48:52.888Z,96531.47
2023-11-23T15:51:51.321Z,96528.31
2023-11-23T15:54:48.476Z,96525.63
2023-11-23T15:57:45.403Z,96520.59
2023-11-23T16:00:44.666Z,96515.81
2023-11-23T16:03:41.583Z,96505.44
2023-11-23T16:06:38.962Z,96502.03
2023-11-23T16:09:35.900Z,96495.69
2023-11-23T16:12:33.695Z,96488.25
2023-11-23T16:15:30.814Z,96481.63
2023-11-23T16:18:29.473Z,96475.25
2023-11-23T16:21:26.416Z,96473.59
2023-11-23T16:24:23.492Z,96465.94
2023-11-23T16:27:20.421Z,96467.53
2023-11-23T16:30:17.441Z,96465.94
2023-11-23T16:33:14.538Z,96457.41
2023-11-23T16:36:23.232Z,96454.53
2023-11-23T16:39:30.012Z,96460.91
2023-11-23T16:42:27.248Z,96452.91
2023-11-23T16:45:24.241Z,96450.03
2023-11-23T16:48:22.885Z,96438.88
2023-11-23T16:51:20.177Z,96446.09
2023-11-23T16:54:20.489Z,96432.94
2023-11-23T16:57:17.506Z,96437.00
2023-11-23T17:00:15.608Z,96441.75
2023-11-23T17:03:16.256Z,96438.84
2023-11-23T17:06:13.500Z,96424.78
2023-11-23T17:09:11.137Z,96406.72
2023-11-23T17:12:09.327Z,96403.00
2023-11-23T17:15:08.433Z,96407.28
2023-11-23T17:18:05.741Z,96400.94
2023-11-23T17:21:02.811Z,96384.41
2023-11-23T17:23:59.938Z,96390.31
2023-11-23T17:26:56.837Z,96385.22
2023-11-23T17:29:53.710Z,96384.19
2023-11-23T17:32:50.720Z,96373.84
2023-11-23T17:35:47.902Z,96378.66
2023-11-23T17:38:45.895Z,96367.47
2023-11-23T17:41:48.916Z,96366.44
2023-11-23T17:44:45.877Z,96354.66
2023-11-23T17:47:45.344Z,96345.41
2023-11-23T17:50:42.383Z,96338.50
2023-11-23T17:53:41.400Z,96326.34
2023-11-23T17:56:38.991Z,96305.38
2023-11-23T17:59:46.825Z,96297.34
2023-11-23T18:02:45.176Z,96305.53
2023-11-23T18:05:43.888Z,96293.50
2023-11-23T18:08:41.239Z,96289.91
2023-11-23T18:11:38.209Z,96295.75
2023-11-23T18:14:35.081Z,96270.78
2023-11-23T18:17:32.025Z,96246.41
2023-11-23T18:20:33.351Z,96262.19
2023-11-23T18:23:30.352Z,96246.75
2023-11-23T18:26:27.219Z,96239.59
2023-11-23T18:29:24.422Z,96236.22
2023-11-23T18:32:21.337Z,96235.84
2023-11-23T18:35:19.523Z,96236.47
2023-11-23T18:38:16.710Z,96226.59
2023-11-23T18:41:13.724Z,96210.38
2023-11-23T18:44:14.122Z,96193.34
2023-11-23T18:47:11.134Z,96198.69
2023-11-23T18:50:12.581Z,96188.03
2023-11-23T18:53:09.483Z,96190.44
2023-11-23T18:56:09.050Z,96180.38
2023-11-23T18:59:05.959Z,96181.09
2023-11-23T19:02:03.013Z,96189.47
2023-11-23T19:05:00.845Z,96197.69
2023-11-23T19:07:57.813Z,96186.88
2023-11-23T19:10:58.788Z,96182.34
2023-11-23T19:13:57.045Z,96187.88
2023-11-23T19:16:54.517Z,96180.47
2023-11-23T19:19:51.769Z,96171.94
2023-11-23T19:22:48.948Z,96163.19
2023-11-23T19:25:50.483Z,96165.56
2023-11-23T19:28:47.748Z,96157.50
2023-11-23T19:31:51.903Z,96153.56
2023-11-23T19:34:49.305Z,96157.94
2023-11-23T19:37:53.179Z,96152.84
2023-11-23T19:40:50.603Z,96143.28
2023-11-23T19:43:48.523Z,96150.47
2023-11-23T19:46:45.872Z,96147.59
2023-11-23T19:49:43.933Z,96135.38
2023-11-23T19:52:44.773Z,96130.06
2023-11-23T19:55:41.916Z,96112.84
2023-11-23T19:58:38.778Z,96114.53
2023-11-23T20:01:37.178Z,96114.25
2023-11-23T20:04:34.425Z,96113.91
2023-11-23T20:07:33.435Z,96114.25
2023-11-23T20:10:30.310Z,96116.13
2023-11-23T20:13:27.245Z,96101.69
2023-11-23T20:16:31.219Z,96096.66
2023-11-23T20:19:30.658Z,96093.75
2023-11-23T20:22:27.502Z,96087.28
2023-11-23T20:25:25.463Z,96062.84
2023-11-23T20:28:22.325Z,96053.09
2023-11-23T20:31:19.309Z,96040.41
2023-11-23T20:34:16.285Z,96031.84
2023-11-23T20:37:13.444Z,96026.91
2023-11-23T20:40:11.191Z,96018.94
2023-11-23T20:43:08.159Z,96014.75
2023-11-23T20:46:05.247Z,96005.31
2023-11-23T20:49:04.478Z,95988.03
2023-11-23T20:52:01.581Z,95982.81
2023-11-23T20:54:58.992Z,95983.09
2023-11-23T20:57:57.714Z,95982.28
2023-11-23T21:00:57.824Z,95980.28
2023-11-23T21:03:55.344Z,95962.47
2023-11-23T21:07:01.291Z,95954.41
2023-11-23T21:09:59.779Z,95941.41
2023-11-23T21:12:56.733Z,95930.25
2023-11-23T21:15:54.374Z,95922.09
2023-11-23T21:18:51.472Z,95930.28
2023-11-23T21:21:48.449Z,95912.03
2023-11-23T21:24:45.707Z,95898.44
2023-11-23T21:27:43.585Z,95905.81
2023-11-23T21:30:40.656Z,95897.56
2023-11-23T21:33:37.616Z,95890.75
2023-11-23T21:36:35.844Z,95873.59
2023-11-23T21:39:32.944Z,95875.03
2023-11-23T21:42:29.962Z,95860.75
2023-11-23T21:45:27.069Z,95856.50
2023-11-23T21:48:24.830Z,95853.22
2023-11-23T21:51:23.810Z,95843.50
2023-11-23T21:54:20.931Z,95848.72
2023-11-23T21:57:19.489Z,95827.22
2023-11-23T22:00:17.043Z,95820.50
2023-11-23T22:03:14.201Z,95827.91
2023-11-23T22:06:11.628Z,95818.63
2023-11-23T22:09:08.522Z,95818.53
2023-11-23T22:12:06.008Z,95816.03
2023-11-23T22:15:03.071Z,95794.09
2023-11-23T22:18:00.349Z,95788.53
2023-11-23T22:20:57.583Z,95795.03
2023-11-23T22:23:54.824Z,95784.06
2023-11-23T22:26:52.301Z,95798.84
2023-11-23T22:29:50.001Z,95797.91
2023-11-23T22:32:48.206Z,95789.06
2023-11-23T22:35:45.355Z,95767.44
2023-11-23T22:38:42.571Z,95777.19
2023-11-23T22:41:39.863Z,95757.88
2023-11-23T22:44:37.048Z,95747.78
2023-11-23T22:47:34.173Z,95735.31
2023-11-23T22:50:31.113Z,95751.91
2023-11-23T22:53:29.262Z,95715.50
2023-11-23T22:56:26.168Z,95715.69
2023-11-23T22:59:23.029Z,95720.03
2023-11-23T23:02:20.065Z,95706.44
2023-11-23T23:05:17.350Z,95716.25
2023-11-23T23:08:14.367Z,95703.56
2023-11-23T23:11:11.835Z,95698.19
2023-11-23T23:14:08.918Z,95706.81
2023-11-23T23:17:06.866Z,95698.38
2023-11-23T23:20:07.240Z,95683.41
2023-11-23T23:23:04.467Z,95693.16
2023-11-23T23:26:02.776Z,95677.66
2023-11-23T23:29:02.735Z,95677.19
2023-11-23T23:31:59.673Z,95678.38
2023-11-23T23:34:56.715Z,95654.09
2023-11-23T23:37:53.599Z,95665.78
2023-11-23T23:40:51.511Z,95649.81
2023-11-23T23:43:49.096Z,95650.75
2023-11-23T23:46:45.999Z,95643.19
2023-11-23T23:49:42.996Z,95630.31
2023-11-23T23:52:40.044Z,95615.28
2023-11-23T23:55:37.026Z,95613.38
2023-11-23T23:58:33.894Z,95609.97
